Time;durP1;ratioP1;P1;durP2;ratioP2;P2;SDS_P1;SDS_P2;PMS_P1;PMS_P2;Temp;Humidity;BMP_temperature;BMP_pressure;BME280_temperature;BME280_humidity;BME280_pressure;Samples;Min_cycle;Max_cycle;Signal;HPM_P1;HPM_P2
2022/06/22 00:02:24;;;;;;;6.40;4.00;;;;;;;18.12;100.00;90705.88;5070954;28;20036;-65
2022/06/22 00:05:18;;;;;;;6.55;5.07;;;;;;;18.11;100.00;90703.53;5071090;28;20052;-65
2022/06/22 00:07:48;;;;;;;;;;;;;;;18.09;100.00;90703.91;5069780;28;20044;-65
2022/06/22 00:10:14;;;;;;;6.25;4.32;;;;;;;18.04;100.00;90706.91;5070997;28;20503;-65
2022/06/22 00:12:40;;;;;;;9.85;5.10;;;;;;;18.03;100.00;90710.75;5070997;28;20119;-65
2022/06/22 00:15:36;;;;;;;7.53;4.95;;;;;;;17.98;100.00;90697.56;5070921;28;20042;-64
2022/06/22 00:18:36;;;;;;;8.13;4.43;;;;;;;17.88;100.00;90703.56;5067408;28;20060;-64
2022/06/22 00:21:16;;;;;;;7.28;4.70;;;;;;;17.78;100.00;90706.81;5070891;28;20037;-64
2022/06/22 00:23:45;;;;;;;6.05;4.45;;;;;;;17.74;100.00;90711.38;5070980;28;20050;-64
2022/06/22 00:26:46;;;;;;;7.78;4.45;;;;;;;17.80;100.00;90707.25;5070462;28;20049;-64
2022/06/22 00:29:20;;;;;;;6.20;4.60;;;;;;;17.77;100.00;90711.44;5063614;28;20045;-64
2022/06/22 00:31:48;;;;;;;7.15;4.22;;;;;;;17.82;100.00;90715.72;5069921;28;20406;-64
2022/06/22 00:34:16;;;;;;;6.55;4.22;;;;;;;17.81;100.00;90714.94;5071005;28;20036;-64
2022/06/22 00:36:48;;;;;;;6.65;4.40;;;;;;;17.76;100.00;90717.94;5070975;28;20036;-64
2022/06/22 00:39:18;;;;;;;7.47;5.25;;;;;;;17.74;100.00;90714.84;5070871;28;20502;-64
2022/06/22 00:41:49;;;;;;;7.68;4.50;;;;;;;17.96;100.00;90710.59;5070823;28;20120;-64
2022/06/22 00:44:16;;;;;;;7.82;4.68;;;;;;;18.00;100.00;90716.84;5070858;28;20044;-64
2022/06/22 00:46:50;;;;;;;5.93;4.40;;;;;;;18.13;100.00;90715.50;5070963;28;20036;-64
2022/06/22 00:49:20;;;;;;;11.80;4.22;;;;;;;18.12;100.00;90713.16;5070767;28;20438;-64
2022/06/22 00:51:46;;;;;;;7.07;4.97;;;;;;;18.09;100.00;90717.38;5070703;28;20048;-64
2022/06/22 00:54:18;;;;;;;8.80;4.65;;;;;;;18.12;100.00;90713.16;5070695;28;20040;-64
2022/06/22 00:56:50;;;;;;;7.82;4.97;;;;;;;18.07;100.00;90721.56;5070972;28;20125;-64
2022/06/22 00:59:19;;;;;;;7.77;5.07;;;;;;;18.04;100.00;90720.38;5070620;28;20040;-64
2022/06/22 01:01:50;;;;;;;6.72;4.65;;;;;;;18.10;100.00;90716.22;5070514;28;20361;-64
2022/06/22 01:04:21;;;;;;;8.52;5.38;;;;;;;18.27;100.00;90725.72;5070549;28;20521;-64
2022/06/22 01:07:08;;;;;;;11.60;5.97;;;;;;;18.25;100.00;90723.41;5070415;28;20068;-65
2022/06/22 01:09:36;;;;;;;6.75;5.07;;;;;;;18.20;100.00;90731.03;5070762;28;20123;-64
2022/06/22 01:12:17;;;;;;;7.88;5.10;;;;;;;18.10;100.00;90715.44;5070367;28;20410;-65
2022/06/22 01:14:49;;;;;;;6.60;4.78;;;;;;;18.03;100.00;90716.13;5070341;28;20036;-65
2022/06/22 01:17:43;;;;;;;8.63;5.22;;;;;;;18.00;100.00;90722.22;5070310;28;20040;-65
2022/06/22 01:20:25;;;;;;;5.18;4.03;;;;;;;17.96;100.00;90724.06;5070149;28;20055;-65
2022/06/22 01:23:19;;;;;;;7.40;4.50;;;;;;;17.86;100.00;90722.75;5070339;28;20037;-65
2022/06/22 01:25:57;;;;;;;7.15;4.45;;;;;;;17.75;100.00;90721.78;5070155;28;20094;-65
2022/06/22 01:28:24;;;;;;;8.13;4.60;;;;;;;17.73;100.00;90718.66;5070360;28;20040;-65
2022/06/22 01:30:55;;;;;;;6.90;5.07;;;;;;;17.69;100.00;90719.75;5070455;28;20044;-65
2022/06/22 01:33:35;;;;;;;10.23;4.85;;;;;;;17.65;100.00;90717.72;5070443;28;20029;-64
2022/06/22 01:36:06;;;;;;;6.03;4.68;;;;;;;17.64;100.00;90718.06;5070392;28;20028;-64
2022/06/22 01:38:35;;;;;;;7.28;4.60;;;;;;;17.52;100.00;90713.66;5070979;28;20031;-64
2022/06/22 01:41:19;;;;;;;7.53;5.00;;;;;;;17.61;100.00;90713.41;5073680;28;20047;-64
2022/06/22 01:43:44;;;;;;;6.45;4.80;;;;;;;17.67;100.00;90706.59;5073767;28;20029;-64
2022/06/22 01:46:22;;;;;;;11.43;5.85;;;;;;;17.73;100.00;90707.13;5073809;28;20078;-64
2022/06/22 01:48:58;;;;;;;8.20;5.30;;;;;;;17.82;100.00;90713.81;5073631;28;20028;-65
2022/06/22 01:51:39;;;;;;;10.98;5.65;;;;;;;17.83;100.00;90717.28;5073483;28;20398;-65
2022/06/22 01:54:14;;;;;;;10.50;5.78;;;;;;;17.84;100.00;90716.19;5073562;28;20107;-65
2022/06/22 01:56:42;;;;;;;8.15;5.53;;;;;;;17.95;100.00;90719.81;5073274;28;20057;-65
2022/06/22 01:59:23;;;;;;;8.50;5.50;;;;;;;17.98;100.00;90713.72;5073414;28;20078;-65
2022/06/22 02:02:00;;;;;;;7.60;5.15;;;;;;;18.04;100.00;90720.38;5073232;28;20064;-65
2022/06/22 02:04:29;;;;;;;6.70;5.10;;;;;;;18.06;100.00;90718.09;5073347;28;20043;-65
2022/06/22 02:09:52;;;;;;;8.55;6.53;;;;;;;18.01;100.00;90704.94;5073134;28;20036;-65
2022/06/22 02:12:27;;;;;;;6.82;5.43;;;;;;;18.01;100.00;90699.56;5073030;28;20761;-65
2022/06/22 02:15:00;;;;;;;8.27;5.53;;;;;;;18.02;100.00;90692.25;5072968;28;20517;-65
2022/06/22 02:17:32;;;;;;;11.15;5.78;;;;;;;18.15;100.00;90696.31;5073101;28;20032;-65
2022/06/22 02:20:19;;;;;;;7.95;5.18;;;;;;;18.28;100.00;90692.28;5072907;28;20422;-65
2022/06/22 02:22:46;;;;;;;8.18;5.35;;;;;;;18.29;100.00;90695.75;5073019;28;20039;-65
2022/06/22 02:25:14;;;;;;;9.23;6.35;;;;;;;18.18;100.00;90695.59;5072790;28;20048;-65
2022/06/22 02:27:40;;;;;;;7.70;5.57;;;;;;;18.15;100.00;90699.78;5072843;28;20029;-65
2022/06/22 02:30:06;;;;;;;8.98;5.40;;;;;;;18.14;100.00;90694.75;5072778;28;20089;-65
2022/06/22 02:32:34;;;;;;;11.80;5.47;;;;;;;18.15;100.00;90694.41;5072755;28;20033;-65
2022/06/22 02:35:00;;;;;;;8.38;5.65;;;;;;;18.23;100.00;90704.13;5072624;28;20484;-65
2022/06/22 02:37:29;;;;;;;9.77;5.75;;;;;;;18.29;100.00;90701.91;5072645;28;20032;-65
2022/06/22 02:39:59;;;;;;;8.52;6.03;;;;;;;18.35;100.00;90716.66;5072643;28;20060;-66
2022/06/22 02:45:11;;;;;;;9.00;5.32;;;;;;;18.44;100.00;90709.09;5072785;28;20113;-65
2022/06/22 02:47:52;;;;;;;9.23;5.80;;;;;;;18.44;100.00;90698.31;5072431;28;20040;-65
2022/06/22 02:50:44;;;;;;;8.20;5.47;;;;;;;18.51;100.00;90694.97;5072194;28;20032;-65
2022/06/22 02:53:28;;;;;;;7.50;5.38;;;;;;;18.47;100.00;90691.44;5072313;28;20552;-65
2022/06/22 02:55:54;;;;;;;8.95;6.00;;;;;;;18.50;100.00;90677.25;5072301;28;20039;-64
2022/06/22 02:58:30;;;;;;;9.10;6.15;;;;;;;18.38;100.00;90685.53;5072185;28;20036;-65
2022/06/22 03:01:00;;;;;;;8.85;5.45;;;;;;;18.34;100.00;90687.38;5072347;28;20047;-65
2022/06/22 03:03:28;;;;;;;7.90;5.18;;;;;;;18.30;100.00;90684.63;5072362;28;20447;-65
2022/06/22 03:05:56;;;;;;;9.23;5.47;;;;;;;18.41;100.00;90692.88;5072090;28;20490;-65
2022/06/22 03:08:23;;;;;;;6.15;5.15;;;;;;;18.47;100.00;90686.84;5072108;28;20078;-65
2022/06/22 03:11:01;;;;;;;15.55;6.88;;;;;;;18.57;100.00;90685.41;5071987;28;20043;-65
2022/06/22 03:13:49;;;;;;;10.13;6.15;;;;;;;18.76;100.00;90692.63;5071860;28;20024;-65
2022/06/22 03:16:38;;;;;;;8.13;5.53;;;;;;;18.88;100.00;90691.66;5071788;28;20119;-65
2022/06/22 03:19:11;;;;;;;7.47;4.95;;;;;;;18.86;100.00;90675.84;5071736;28;20797;-65
2022/06/22 03:21:39;;;;;;;8.98;5.25;;;;;;;18.98;100.00;90669.47;5071579;28;20044;-65
2022/06/22 03:24:21;;;;;;;9.18;5.60;;;;;;;19.00;100.00;90667.19;5071647;28;20031;-65
2022/06/22 03:27:00;;;;;;;7.82;4.95;;;;;;;19.08;100.00;90674.19;5071525;28;20089;-65
2022/06/22 03:29:37;;;;;;;8.98;4.78;;;;;;;18.98;100.00;90672.94;5071420;28;20032;-64
2022/06/22 03:32:08;;;;;;;6.85;5.40;;;;;;;19.03;100.00;90669.13;5071486;28;20095;-65
2022/06/22 03:35:16;;;;;;;7.50;5.30;;;;;;;19.16;100.00;90675.84;5071353;28;20033;-65
2022/06/22 03:37:49;;;;;;;7.85;5.38;;;;;;;19.24;100.00;90671.31;5034217;28;20500;-65
2022/06/22 03:40:27;;;;;;;7.03;5.15;;;;;;;19.28;100.00;90681.00;5071274;28;20075;-65
2022/06/22 03:42:57;;;;;;;10.20;5.68;;;;;;;19.33;100.00;90677.22;5071320;28;20033;-65
2022/06/22 03:45:38;;;;;;;8.93;5.45;;;;;;;19.48;100.00;90678.16;5071301;28;20021;-65
2022/06/22 03:48:12;;;;;;;7.72;5.18;;;;;;;19.58;100.00;90675.59;5070951;28;20032;-65
2022/06/22 03:50:40;;;;;;;7.95;5.65;;;;;;;19.72;100.00;90686.56;5070830;28;20502;-65
2022/06/22 03:53:14;;;;;;;11.65;7.45;;;;;;;19.76;100.00;90686.59;5070965;28;20162;-65
2022/06/22 03:55:46;;;;;;;10.80;5.82;;;;;;;19.78;100.00;90678.88;5070553;28;20439;-66
2022/06/22 03:58:13;;;;;;;9.05;6.47;;;;;;;19.76;100.00;90685.81;5071254;28;20040;-65
2022/06/22 04:00:42;;;;;;;6.90;5.35;;;;;;;19.90;100.00;90678.63;5070817;28;20115;-65
2022/06/22 04:03:10;;;;;;;9.52;5.18;;;;;;;20.01;100.00;90690.28;5070432;28;20032;-65
2022/06/22 04:05:51;;;;;;;8.65;6.03;;;;;;;19.99;100.00;90692.59;5070846;28;20107;-66
2022/06/22 04:08:32;;;;;;;8.93;6.55;;;;;;;20.09;100.00;90699.25;5070311;28;20028;-65
2022/06/22 04:11:38;;;;;;;7.07;5.20;;;;;;;20.01;100.00;90706.50;5070848;28;20175;-65
2022/06/22 04:14:20;;;;;;;10.52;5.88;;;;;;;20.06;100.00;90699.22;5070529;28;20048;-66
2022/06/22 04:16:58;;;;;;;11.73;6.90;;;;;;;19.99;100.00;90703.38;5070642;28;20028;-65
2022/06/22 04:19:41;;;;;;;7.90;6.03;;;;;;;20.01;100.00;90706.50;5070485;28;20040;-66
2022/06/22 04:22:15;;;;;;;9.75;6.68;;;;;;;20.08;100.00;90705.81;5070826;28;20021;-66
2022/06/22 04:24:55;;;;;;;8.50;5.70;;;;;;;20.24;100.00;90705.56;5070628;28;20422;-66
2022/06/22 04:27:24;;;;;;;10.75;6.93;;;;;;;20.18;100.00;90699.69;5070912;28;20089;-66
2022/06/22 04:30:00;;;;;;;7.55;5.78;;;;;;;20.26;100.00;90708.66;5070780;28;20066;-66
2022/06/22 04:32:39;;;;;;;12.45;5.88;;;;;;;20.33;100.00;90706.00;5070944;28;20032;-66
2022/06/22 04:35:25;;;;;;;9.18;5.80;;;;;;;20.52;100.00;90700.44;5070790;28;20039;-66
2022/06/22 04:37:57;;;;;;;9.57;5.90;;;;;;;20.85;100.00;90699.50;5061797;28;20090;-64
2022/06/22 04:40:47;;;;;;;8.60;5.90;;;;;;;21.11;100.00;90706.59;5050688;28;20028;-65
2022/06/22 04:43:13;;;;;;;7.85;5.75;;;;;;;21.24;100.00;90707.03;5050805;28;20495;-65
2022/06/22 04:45:41;;;;;;;9.15;6.53;;;;;;;21.50;100.00;90700.63;5050795;28;20029;-65
2022/06/22 04:48:09;;;;;;;9.57;6.30;;;;;;;21.72;100.00;90698.78;5050910;28;20032;-64
2022/06/22 04:50:37;;;;;;;8.73;6.03;;;;;;;21.94;100.00;90689.56;5050649;28;20081;-65
2022/06/22 04:53:04;;;;;;;7.45;5.93;;;;;;;22.14;100.00;90695.44;5050789;28;20508;-65
2022/06/22 04:55:33;;;;;;;9.70;6.68;;;;;;;22.14;100.00;90694.66;5050673;28;20086;-65
2022/06/22 04:58:03;;;;;;;13.85;8.93;;;;;;;22.40;100.00;90695.06;5050969;28;20028;-65
2022/06/22 05:00:31;;;;;;;12.63;8.20;;;;;;;22.38;100.00;90694.66;5050643;28;20041;-65
2022/06/22 05:03:09;;;;;;;14.52;8.38;;;;;;;22.54;100.00;90707.06;5050747;28;20032;-65
2022/06/22 05:05:35;;;;;;;13.00;8.52;;;;;;;22.50;100.00;90700.88;5050709;28;20027;-65
2022/06/22 05:08:10;;;;;;;11.60;7.72;;;;;;;22.41;100.00;90704.75;5050599;28;20029;-65
2022/06/22 05:10:54;;;;;;;12.00;7.95;;;;;;;22.54;100.00;90717.91;5050536;28;20108;-65
2022/06/22 05:13:26;;;;;;;11.80;8.25;;;;;;;22.48;100.00;90706.69;5051099;28;20029;-65
2022/06/22 05:15:54;;;;;;;16.00;7.93;;;;;;;22.61;100.00;90712.50;5054386;28;20036;-65
2022/06/22 05:18:35;;;;;;;11.88;7.97;;;;;;;22.73;100.00;90714.06;5054071;28;20036;-65
2022/06/22 05:21:06;;;;;;;13.02;8.07;;;;;;;22.94;100.00;90719.50;5053908;28;20495;-65
2022/06/22 05:23:32;;;;;;;14.13;8.73;;;;;;;23.14;100.00;90717.16;5054226;28;20021;-66
2022/06/22 05:26:01;;;;;;;15.05;8.93;;;;;;;23.05;100.00;90714.06;5054075;28;20404;-65
2022/06/22 05:28:33;;;;;;;15.55;9.00;;;;;;;23.18;100.00;90723.31;5054192;28;20166;-65
2022/06/22 05:31:12;;;;;;;11.60;7.43;;;;;;;23.25;100.00;90723.34;5053976;28;20158;-65
2022/06/22 05:33:42;;;;;;;13.38;8.45;;;;;;;23.36;100.00;90724.09;5054047;28;20041;-66
2022/06/22 05:36:14;;;;;;;12.35;7.85;;;;;;;23.39;100.00;90731.44;5054021;28;20029;-66
2022/06/22 05:38:46;;;;;;;13.43;8.73;;;;;;;23.60;100.00;90728.69;5054119;28;20036;-66
2022/06/22 05:41:19;;;;;;;12.30;7.45;;;;;;;23.83;100.00;90720.09;5052690;28;20036;-65
2022/06/22 05:43:45;;;;;;;10.60;8.23;;;;;;;23.67;100.00;90733.34;5053892;28;20060;-65
2022/06/22 05:46:11;;;;;;;9.82;7.43;;;;;;;23.70;100.00;90731.78;5053848;28;20119;-65
2022/06/22 05:48:43;;;;;;;12.50;8.75;;;;;;;23.67;100.00;90740.69;5053891;28;20454;-65
2022/06/22 05:51:25;;;;;;;14.27;8.43;;;;;;;24.71;94.55;90728.13;5053755;28;20036;-65
2022/06/22 05:53:58;;;;;;;12.50;7.45;;;;;;;26.88;77.83;90736.66;5053814;28;20040;-65
2022/06/22 05:56:37;;;;;;;10.63;7.63;;;;;;;28.87;65.17;90738.41;5053692;28;20025;-65
2022/06/22 05:59:34;;;;;;;10.18;6.70;;;;;;;28.53;64.45;90733.28;5053684;28;20039;-65
2022/06/22 06:02:29;;;;;;;10.25;7.80;;;;;;;28.99;63.19;90736.97;5053598;28;20494;-65
2022/06/22 06:05:13;;;;;;;8.63;6.53;;;;;;;28.86;62.90;90736.88;5053508;28;20401;-65
2022/06/22 06:07:48;;;;;;;12.23;8.02;;;;;;;29.11;63.11;90730.06;5053499;28;20056;-65
2022/06/22 06:10:16;;;;;;;13.20;7.65;;;;;;;30.02;58.25;90731.66;5053684;28;20141;-66
2022/06/22 06:12:48;;;;;;;9.98;7.28;;;;;;;30.65;56.07;90736.59;5053579;28;20029;-65
2022/06/22 06:15:15;;;;;;;9.67;7.07;;;;;;;30.69;56.16;90745.50;5053256;28;20387;-65
2022/06/22 06:17:45;;;;;;;10.20;7.80;;;;;;;31.20;54.82;90742.78;5053260;28;20029;-65
2022/06/22 06:20:38;;;;;;;12.20;7.20;;;;;;;30.99;54.04;90751.66;5053152;28;20055;-65
2022/06/22 06:23:35;;;;;;;9.67;7.10;;;;;;;30.65;55.14;90744.84;5053597;28;20038;-65
2022/06/22 06:29:12;;;;;;;11.18;7.65;;;;;;;28.72;59.79;90726.25;5053161;28;20036;-65
2022/06/22 06:32:00;;;;;;;8.82;6.80;;;;;;;31.22;53.77;90731.34;5052937;28;20021;-65
2022/06/22 06:34:36;;;;;;;8.88;6.43;;;;;;;32.47;51.40;90738.91;5052996;28;20079;-65
2022/06/22 06:37:11;;;;;;;9.77;7.07;;;;;;;30.44;54.30;90731.69;5052864;28;20163;-65
2022/06/22 06:39:42;;;;;;;12.23;6.72;;;;;;;30.80;53.67;90738.94;5052827;28;20411;-65
2022/06/22 06:42:17;;;;;;;8.90;7.18;;;;;;;30.59;54.53;90745.78;5052836;28;20158;-65
2022/06/22 06:44:44;;;;;;;10.13;6.82;;;;;;;29.87;55.76;90740.72;5052659;28;20021;-65
2022/06/22 06:47:26;;;;;;;9.10;6.55;;;;;;;30.53;54.24;90742.03;5051408;28;20037;-65
2022/06/22 06:50:41;;;;;;;9.60;7.03;;;;;;;31.25;51.71;90741.47;5052527;28;20395;-65
2022/06/22 06:53:41;;;;;;;9.43;6.28;;;;;;;28.98;57.98;90743.66;5051353;28;20049;-65
2022/06/22 06:56:17;;;;;;;9.93;6.78;;;;;;;30.30;54.29;90738.38;5036389;28;20071;-66
2022/06/22 06:58:51;;;;;;;9.07;7.07;;;;;;;31.25;52.69;90734.00;5052543;28;20025;-66
2022/06/22 07:01:22;;;;;;;11.18;6.50;;;;;;;32.38;51.25;90730.63;5052368;28;20104;-66
2022/06/22 07:03:49;;;;;;;8.65;6.10;;;;;;;33.59;47.26;90732.25;5052239;28;20044;-66
2022/06/22 07:06:15;;;;;;;7.75;6.38;;;;;;;31.38;51.31;90727.69;5052325;28;20036;-66
2022/06/22 07:08:51;;;;;;;7.53;6.30;;;;;;;30.29;52.64;90722.31;5052226;28;20036;-65
2022/06/22 07:11:32;;;;;;;9.93;6.63;;;;;;;28.42;57.60;90729.25;5052210;28;20104;-65
2022/06/22 07:14:05;;;;;;;10.45;7.30;;;;;;;29.08;55.91;90715.25;5051960;28;20040;-65
2022/06/22 07:16:30;;;;;;;;;;;;;;;28.42;57.79;90718.31;5052411;28;20072;-66
2022/06/22 07:19:04;;;;;;;11.18;7.32;;;;;;;29.84;57.12;90717.66;5051993;28;20413;-66
2022/06/22 07:21:53;;;;;;;9.45;7.25;;;;;;;31.90;50.91;90729.16;5051823;28;20475;-65
2022/06/22 07:24:29;;;;;;;9.98;7.50;;;;;;;31.75;49.51;90728.88;5051674;28;20025;-67
2022/06/22 07:27:25;;;;;;;12.32;7.50;;;;;;;32.37;49.37;90727.09;5051954;28;20025;-68
2022/06/22 07:30:00;;;;;;;11.60;7.63;;;;;;;32.36;49.48;90717.31;5051728;28;20411;-68
2022/06/22 07:32:37;;;;;;;8.57;6.97;;;;;;;32.15;47.98;90710.53;5052092;28;20453;-67
2022/06/22 07:35:32;;;;;;;10.27;7.00;;;;;;;31.36;48.40;90700.66;5051794;28;20032;-68
2022/06/22 07:38:11;;;;;;;10.23;7.22;;;;;;;31.78;48.30;90717.75;5051185;28;20112;-68
2022/06/22 07:40:39;;;;;;;13.48;6.75;;;;;;;31.95;47.41;90720.31;5051644;28;20029;-68
2022/06/22 07:43:05;;;;;;;14.60;8.25;;;;;;;32.64;47.43;90714.69;5051954;28;20035;-68
2022/06/22 07:45:31;;;;;;;9.27;6.82;;;;;;;31.72;46.54;90725.00;5051392;28;20017;-67
2022/06/22 07:48:17;;;;;;;12.50;6.63;;;;;;;31.87;49.20;90728.03;5051656;28;20090;-67
2022/06/22 07:50:51;;;;;;;11.27;7.25;;;;;;;31.73;50.35;90732.06;5051473;28;20033;-68
2022/06/22 07:53:30;;;;;;;11.90;7.88;;;;;;;32.45;49.03;90725.59;5051557;28;20099;-68
2022/06/22 07:56:37;;;;;;;11.88;8.00;;;;;;;32.16;48.85;90725.81;5051435;28;20048;-67
2022/06/22 07:59:15;;;;;;;10.20;7.28;;;;;;;32.56;48.19;90724.44;5051295;28;20029;-68
2022/06/22 08:01:42;;;;;;;9.32;6.35;;;;;;;32.91;47.55;90725.13;5051323;28;20040;-68
2022/06/22 08:04:34;;;;;;;10.35;6.88;;;;;;;32.40;47.21;90717.16;5051395;28;20044;-66
2022/06/22 08:07:10;;;;;;;8.30;6.15;;;;;;;32.28;46.57;90720.75;5045485;28;20136;-66
2022/06/22 08:09:44;;;;;;;12.10;7.00;;;;;;;32.36;45.60;90728.31;5051176;28;20033;-69
2022/06/22 08:12:22;;;;;;;8.32;6.97;;;;;;;32.98;46.88;90711.84;5051152;28;20040;-69
2022/06/22 08:14:50;;;;;;;11.45;7.32;;;;;;;33.98;45.41;90724.38;5051209;28;20510;-69
2022/06/22 08:17:40;;;;;;;16.83;7.97;;;;;;;34.38;45.02;90734.53;5051121;28;20491;-66
2022/06/22 08:20:06;;;;;;;10.32;7.50;;;;;;;32.03;48.19;90732.59;5050884;28;20471;-66
2022/06/22 08:22:33;;;;;;;10.80;7.82;;;;;;;32.76;47.08;90727.63;5050939;28;20051;-64
2022/06/22 08:25:01;;;;;;;13.10;7.07;;;;;;;34.03;44.40;90731.28;5050725;28;20053;-66
2022/06/22 08:27:27;;;;;;;11.18;7.13;;;;;;;33.76;45.76;90721.72;5050884;28;20595;-66
2022/06/22 08:29:54;;;;;;;8.98;6.30;;;;;;;33.93;46.13;90717.50;5050808;28;20090;-66
2022/06/22 08:32:26;;;;;;;11.02;6.90;;;;;;;34.38;45.88;90709.66;5050931;28;20041;-65
2022/06/22 08:34:54;;;;;;;8.90;5.93;;;;;;;33.01;44.85;90715.69;5050832;28;20025;-66
2022/06/22 08:37:29;;;;;;;8.75;6.40;;;;;;;33.73;43.35;90713.59;5050994;28;20090;-65
2022/06/22 08:40:11;;;;;;;8.63;6.05;;;;;;;34.16;44.45;90718.88;5050846;28;20039;-65
2022/06/22 08:43:09;;;;;;;9.38;6.43;;;;;;;32.71;46.36;90736.47;5050835;28;20075;-66
2022/06/22 08:45:44;;;;;;;9.70;7.03;;;;;;;33.18;46.95;90724.47;5050759;28;20029;-67
2022/06/22 08:48:23;;;;;;;8.25;6.25;;;;;;;33.15;46.75;90709.59;5053095;28;20029;-67
2022/06/22 08:51:26;;;;;;;8.73;6.45;;;;;;;32.93;45.78;90709.66;5054800;28;20036;-68
2022/06/22 08:54:27;;;;;;;10.07;6.18;;;;;;;34.45;44.12;90712.13;5055179;28;20166;-68
2022/06/22 08:57:10;;;;;;;11.00;6.18;;;;;;;34.74;42.31;90698.56;5054763;28;20480;-68
2022/06/22 08:59:58;;;;;;;11.23;6.97;;;;;;;34.24;44.17;90703.53;5053433;28;20473;-68
2022/06/22 09:02:43;;;;;;;9.57;6.65;;;;;;;33.42;43.90;90702.66;5054619;28;20481;-67
2022/06/22 09:05:46;;;;;;;9.20;6.75;;;;;;;32.76;44.30;90709.09;5054464;28;20028;-66
2022/06/22 09:08:23;;;;;;;9.60;6.83;;;;;;;32.86;44.45;90712.72;5054424;28;20029;-66
2022/06/22 09:11:34;;;;;;;9.85;6.35;;;;;;;33.19;44.38;90707.47;5053090;28;20282;-66
2022/06/22 09:14:21;;;;;;;8.85;6.72;;;;;;;34.39;42.89;90703.69;5052267;28;20108;-67
2022/06/22 09:17:05;;;;;;;9.93;7.07;;;;;;;34.08;44.83;90692.00;5054347;28;20029;-67
2022/06/22 09:20:03;;;;;;;10.45;6.32;;;;;;;33.38;44.62;90705.56;5054342;28;20063;-70
2022/06/22 09:22:59;;;;;;;9.05;7.00;;;;;;;34.61;43.90;90697.97;5038459;28;20045;-70
2022/06/22 09:25:47;;;;;;;9.93;6.22;;;;;;;36.36;40.86;90698.66;5053221;28;20051;-70
2022/06/22 09:28:38;;;;;;;9.88;6.03;;;;;;;36.05;39.21;90693.50;5054214;28;20024;-71
2022/06/22 09:31:43;;;;;;;7.55;6.22;;;;;;;35.82;40.25;90702.53;5054069;28;20025;-70
2022/06/22 09:34:41;;;;;;;7.90;5.75;;;;;;;34.02;42.92;90685.56;5054197;28;20040;-70
2022/06/22 09:37:09;;;;;;;8.77;6.25;;;;;;;34.61;42.93;90691.69;5054050;28;20538;-70
2022/06/22 09:39:56;;;;;;;7.45;6.18;;;;;;;35.70;41.92;90684.97;5053851;28;20487;-71
2022/06/22 09:42:49;;;;;;;9.38;6.10;;;;;;;36.53;40.14;90680.31;5054264;28;20029;-71
2022/06/22 09:45:33;;;;;;;9.80;6.13;;;;;;;34.07;43.03;90665.63;5053954;28;20082;-70
2022/06/22 09:48:31;;;;;;;9.35;5.57;;;;;;;35.95;40.81;90684.47;5053881;28;20116;-71
2022/06/22 09:51:41;;;;;;;10.75;6.30;;;;;;;36.97;40.10;90676.81;5053838;28;20029;-70
2022/06/22 09:56:19;;;;;;;8.65;5.45;;;;;;;35.31;43.60;90681.28;5053620;28;20029;-71
2022/06/22 09:57:18;;;;;;;7.53;6.43;;;;;;;32.96;45.22;90661.91;5053085;28;20033;-70
2022/06/22 10:00:04;;;;;;;6.53;5.63;;;;;;;31.31;48.84;90686.72;5052458;28;20029;-71
2022/06/22 10:03:03;;;;;;;7.35;5.95;;;;;;;31.87;46.35;90675.75;5053330;28;20499;-70
2022/06/22 10:05:44;;;;;;;7.30;5.15;;;;;;;31.29;46.54;90674.19;5053215;28;20033;-70
2022/06/22 10:08:35;;;;;;;8.52;6.05;;;;;;;29.17;51.46;90668.84;5053245;28;20032;-70
2022/06/22 10:11:25;;;;;;;9.98;6.55;;;;;;;29.97;50.71;90669.09;5053003;28;20521;-70
2022/06/22 10:14:14;;;;;;;6.78;5.20;;;;;;;29.21;51.25;90682.47;5053094;28;20406;-70
2022/06/22 10:16:51;;;;;;;8.95;5.88;;;;;;;28.05;54.48;90684.66;5053000;28;20029;-71
2022/06/22 10:19:30;;;;;;;8.25;5.30;;;;;;;28.10;53.84;90667.75;5052912;28;20403;-71
2022/06/22 10:22:19;;;;;;;9.05;6.55;;;;;;;27.52;57.02;90675.50;5052995;28;20040;-71
2022/06/22 10:24:53;;;;;;;9.05;5.57;;;;;;;27.24;61.16;90681.50;5052505;28;20423;-70
2022/06/22 10:27:31;;;;;;;8.38;5.55;;;;;;;27.13;60.27;90685.16;5053050;28;20036;-71
2022/06/22 10:30:25;;;;;;;8.68;5.30;;;;;;;26.52;63.12;90687.31;5052808;28;20033;-72
2022/06/22 10:33:08;;;;;;;13.55;6.28;;;;;;;26.21;71.08;90700.19;5052988;28;20021;-72
2022/06/22 10:35:54;;;;;;;8.05;5.63;;;;;;;25.59;85.21;90693.13;5052658;28;20029;-71
2022/06/22 10:38:45;;;;;;;10.52;6.40;;;;;;;25.42;93.01;90696.81;5052690;28;20020;-72
2022/06/22 10:46:58;;;;;;;9.23;5.70;;;;;;;26.64;75.69;90688.69;5052654;28;20048;-71
2022/06/22 10:49:38;;;;;;;11.57;5.63;;;;;;;27.55;70.98;90680.13;5052097;28;20056;-71
2022/06/22 10:52:51;;;;;;;8.50;4.78;;;;;;;31.57;58.92;90690.94;5052381;28;20352;-71
2022/06/22 10:55:17;;;;;;;8.88;4.72;;;;;;;34.86;50.48;90701.59;5050834;28;20043;-72
2022/06/22 10:57:57;;;;;;;9.27;4.80;;;;;;;35.69;46.04;90688.97;5052025;28;20119;-71
2022/06/22 11:00:50;;;;;;;6.47;4.55;;;;;;;35.39;46.54;90679.75;5051911;28;20029;-72
2022/06/22 11:03:34;;;;;;;9.80;4.53;;;;;;;35.03;45.08;90691.72;5052004;28;20044;-72
2022/06/22 11:06:24;;;;;;;5.93;5.10;;;;;;;34.95;45.71;90671.19;5052080;28;20032;-71
2022/06/22 11:09:19;;;;;;;8.10;5.30;;;;;;;36.15;44.55;90680.34;5051930;28;20025;-70
2022/06/22 11:12:09;;;;;;;8.38;5.63;;;;;;;35.86;43.89;90675.50;5053359;28;20044;-72
2022/06/22 11:15:10;;;;;;;7.90;5.22;;;;;;;36.85;41.96;90669.56;5052129;28;20494;-72
2022/06/22 11:17:53;;;;;;;7.10;5.30;;;;;;;36.82;42.63;90671.28;5052975;28;20498;-71
2022/06/22 11:20:21;;;;;;;6.72;5.18;;;;;;;35.94;43.13;90669.09;5066506;28;20123;-70
2022/06/22 11:23:18;;;;;;;8.93;5.53;;;;;;;35.83;43.27;90676.41;5070861;28;20107;-72
2022/06/22 11:32:23;;;;;;;8.48;5.75;;;;;;;34.10;45.77;90676.53;5064229;28;20039;-68
2022/06/22 11:34:59;;;;;;;6.63;5.55;;;;;;;33.97;48.71;90672.41;5071420;28;20075;-70
2022/06/22 11:37:35;;;;;;;8.18;4.70;;;;;;;33.45;48.21;90666.63;5070383;28;20033;-69
2022/06/22 11:40:23;;;;;;;5.90;4.57;;;;;;;34.59;46.64;90672.03;5060254;28;20031;-71
2022/06/22 11:42:57;;;;;;;6.82;4.45;;;;;;;35.37;45.55;90669.16;5053181;28;20096;-67
2022/06/22 11:45:50;;;;;;;7.85;5.20;;;;;;;35.51;44.55;90661.41;5068925;28;20063;-66
2022/06/22 11:48:37;;;;;;;5.88;4.88;;;;;;;35.91;43.41;90661.00;5070001;28;20075;-65
2022/06/22 11:51:18;;;;;;;6.05;4.72;;;;;;;35.38;44.85;90651.34;5052272;28;20486;-64
2022/06/22 11:54:21;;;;;;;5.03;4.20;;;;;;;35.80;43.69;90655.97;5057354;28;20048;-70
2022/06/22 11:56:47;;;;;;;6.63;4.78;;;;;;;35.64;42.80;90657.16;5052275;28;20029;-70
2022/06/22 11:59:27;;;;;;;8.20;5.93;;;;;;;35.73;43.90;90659.09;5061521;28;20040;-69
2022/06/22 12:02:10;;;;;;;6.28;4.50;;;;;;;36.09;42.72;90668.38;5063554;28;20036;-68
2022/06/22 12:04:44;;;;;;;5.93;4.53;;;;;;;34.96;42.78;90662.41;5064905;28;20521;-70
2022/06/22 12:07:41;;;;;;;6.45;4.63;;;;;;;35.20;43.48;90659.72;5069623;28;20032;-67
2022/06/22 12:10:31;;;;;;;6.80;4.80;;;;;;;32.87;49.28;90650.88;5058944;28;20063;-68
2022/06/22 12:13:09;;;;;;;5.97;4.50;;;;;;;31.52;47.59;90655.75;5067553;28;20028;-69
2022/06/22 12:16:12;;;;;;;7.10;4.47;;;;;;;30.14;51.67;90653.38;5055585;28;20061;-67
2022/06/22 12:19:00;;;;;;;6.93;4.75;;;;;;;29.83;53.20;90642.09;5064759;28;20545;-67
2022/06/22 12:21:47;;;;;;;5.57;4.85;;;;;;;29.21;51.23;90646.84;5070738;28;20062;-68
2022/06/22 12:24:12;;;;;;;9.20;5.05;;;;;;;30.09;51.56;90648.41;5066592;28;20506;-70
2022/06/22 12:26:56;;;;;;;7.28;4.93;;;;;;;29.81;51.97;90647.22;5061557;28;20061;-70
2022/06/22 12:29:30;;;;;;;5.07;4.45;;;;;;;30.07;52.35;90659.06;5059839;28;20515;-68
2022/06/22 12:32:07;;;;;;;11.18;4.47;;;;;;;29.77;52.84;90639.09;5062938;28;20025;-67
2022/06/22 12:34:39;;;;;;;7.72;5.47;;;;;;;29.10;52.46;90651.81;5055752;28;20107;-67
2022/06/22 12:37:21;;;;;;;10.73;6.73;;;;;;;29.91;51.49;90656.34;5065166;28;20060;-64
2022/06/22 12:39:58;;;;;;;9.98;5.50;;;;;;;30.36;51.77;90662.50;5070686;28;20101;-67
2022/06/22 12:43:01;;;;;;;8.90;5.72;;;;;;;31.08;50.38;90676.81;5070652;28;20139;-66